sensor_id;sensor_type;location;lat;lon;timestamp;pressure;altitude;pressure_sealevel;temperature;humidity
69566;BME280;56777;55.930;37.524;2024-03-08T00:01:09;101621.38;;;-4.05;88.60
69566;BME280;56777;55.930;37.524;2024-03-08T00:03:35;101661.28;;;-3.89;89.35
69566;BME280;56777;55.930;37.524;2024-03-08T00:06:00;101644.31;;;-4.16;89.16
69566;BME280;56777;55.930;37.524;2024-03-08T00:08:26;101647.28;;;-3.92;89.25
69566;BME280;56777;55.930;37.524;2024-03-08T00:10:52;101646.56;;;-3.91;89.00
69566;BME280;56777;55.930;37.524;2024-03-08T00:13:18;101652.75;;;-4.17;89.79
69566;BME280;56777;55.930;37.524;2024-03-08T00:15:43;101648.75;;;-4.04;89.14
69566;BME280;56777;55.930;37.524;2024-03-08T00:18:09;101648.38;;;-4.18;90.29
69566;BME280;56777;55.930;37.524;2024-03-08T00:20:35;101662.44;;;-4.04;89.08
69566;BME280;56777;55.930;37.524;2024-03-08T00:23:01;101654.22;;;-4.10;89.03
69566;BME280;56777;55.930;37.524;2024-03-08T00:25:26;101647.31;;;-4.11;89.50
69566;BME280;56777;55.930;37.524;2024-03-08T00:27:52;101657.59;;;-4.01;88.58
69566;BME280;56777;55.930;37.524;2024-03-08T00:30:22;101659.31;;;-4.10;89.53
69566;BME280;56777;55.930;37.524;2024-03-08T00:32:50;101655.50;;;-4.24;88.89
69566;BME280;56777;55.930;37.524;2024-03-08T00:35:15;101656.38;;;-4.15;88.96
69566;BME280;56777;55.930;37.524;2024-03-08T00:37:41;101655.50;;;-4.24;89.29
69566;BME280;56777;55.930;37.524;2024-03-08T00:40:08;101657.03;;;-4.26;88.33
69566;BME280;56777;55.930;37.524;2024-03-08T00:42:34;101663.06;;;-4.07;87.96
69566;BME280;56777;55.930;37.524;2024-03-08T00:45:00;101662.44;;;-4.04;88.98
69566;BME280;56777;55.930;37.524;2024-03-08T00:47:26;101660.16;;;-4.01;88.61
69566;BME280;56777;55.930;37.524;2024-03-08T00:49:52;101667.22;;;-4.17;89.27
69566;BME280;56777;55.930;37.524;2024-03-08T00:52:18;101663.56;;;-4.11;88.45
69566;BME280;56777;55.930;37.524;2024-03-08T00:54:44;101648.09;;;-4.21;88.79
69566;BME280;56777;55.930;37.524;2024-03-08T00:57:10;101653.03;;;-4.14;88.50
69566;BME280;56777;55.930;37.524;2024-03-08T00:59:38;101645.53;;;-4.21;88.50
69566;BME280;56777;55.930;37.524;2024-03-08T01:02:03;101649.59;;;-4.14;88.24
69566;BME280;56777;55.930;37.524;2024-03-08T01:04:29;101640.72;;;-4.18;88.06
69566;BME280;56777;55.930;37.524;2024-03-08T01:06:56;101661.66;;;-4.22;87.88
69566;BME280;56777;55.930;37.524;2024-03-08T01:09:25;101654.47;;;-4.26;88.07
69566;BME280;56777;55.930;37.524;2024-03-08T01:11:53;101652.09;;;-4.33;89.10
69566;BME280;56777;55.930;37.524;2024-03-08T01:14:20;101643.97;;;-4.29;88.13
69566;BME280;56777;55.930;37.524;2024-03-08T01:16:48;101641.97;;;-4.23;88.37
69566;BME280;56777;55.930;37.524;2024-03-08T01:19:14;101643.03;;;-4.30;88.80
69566;BME280;56777;55.930;37.524;2024-03-08T01:21:39;101646.38;;;-4.31;88.65
69566;BME280;56777;55.930;37.524;2024-03-08T01:24:05;101653.72;;;-4.25;88.19
69566;BME280;56777;55.930;37.524;2024-03-08T01:26:31;101646.03;;;-4.25;87.39
69566;BME280;56777;55.930;37.524;2024-03-08T01:28:56;101648.03;;;-4.31;87.50
69566;BME280;56777;55.930;37.524;2024-03-08T01:31:22;101645.53;;;-4.21;88.32
69566;BME280;56777;55.930;37.524;2024-03-08T01:33:47;101642.41;;;-3.99;86.84
69566;BME280;56777;55.930;37.524;2024-03-08T01:36:13;101644.75;;;-4.39;86.73
69566;BME280;56777;55.930;37.524;2024-03-08T01:38:42;101649.28;;;-4.36;87.63
69566;BME280;56777;55.930;37.524;2024-03-08T01:41:07;101645.00;;;-4.27;87.88
69566;BME280;56777;55.930;37.524;2024-03-08T01:43:34;101647.75;;;-4.34;87.47
69566;BME280;56777;55.930;37.524;2024-03-08T01:46:00;101654.16;;;-4.48;87.39
69566;BME280;56777;55.930;37.524;2024-03-08T01:48:28;101644.16;;;-4.36;87.63
69566;BME280;56777;55.930;37.524;2024-03-08T01:50:55;101649.03;;;-4.48;86.99
69566;BME280;56777;55.930;37.524;2024-03-08T01:53:22;101653.88;;;-4.51;87.92
69566;BME280;56777;55.930;37.524;2024-03-08T01:55:48;101657.44;;;-4.40;88.00
69566;BME280;56777;55.930;37.524;2024-03-08T01:58:15;101641.13;;;-4.60;87.43
69566;BME280;56777;55.930;37.524;2024-03-08T02:00:44;101639.44;;;-4.50;88.27
69566;BME280;56777;55.930;37.524;2024-03-08T02:03:11;101652.59;;;-4.37;87.40
69566;BME280;56777;55.930;37.524;2024-03-08T02:05:40;101620.44;;;-4.71;87.84
69566;BME280;56777;55.930;37.524;2024-03-08T02:08:06;101623.03;;;-4.80;87.66
69566;BME280;56777;55.930;37.524;2024-03-08T02:10:44;101650.78;;;-4.38;87.68
69566;BME280;56777;55.930;37.524;2024-03-08T02:13:10;101667.06;;;-4.46;88.04
69566;BME280;56777;55.930;37.524;2024-03-08T02:15:56;101668.63;;;-4.48;88.41
69566;BME280;56777;55.930;37.524;2024-03-08T02:18:22;101660.53;;;-4.62;89.15
69566;BME280;56777;55.930;37.524;2024-03-08T02:20:58;101649.41;;;-4.62;89.17
69566;BME280;56777;55.930;37.524;2024-03-08T02:23:25;101652.31;;;-4.68;89.57
69566;BME280;56777;55.930;37.524;2024-03-08T02:25:51;101659.22;;;-4.67;89.84
69566;BME280;56777;55.930;37.524;2024-03-08T02:28:17;101627.53;;;-4.78;90.16
69566;BME280;56777;55.930;37.524;2024-03-08T02:30:46;101642.13;;;-4.77;90.01
69566;BME280;56777;55.930;37.524;2024-03-08T02:33:14;101654.09;;;-4.67;89.96
69566;BME280;56777;55.930;37.524;2024-03-08T02:35:44;101659.44;;;-4.55;89.93
69566;BME280;56777;55.930;37.524;2024-03-08T02:38:13;101662.38;;;-4.69;90.09
69566;BME280;56777;55.930;37.524;2024-03-08T02:40:43;101649.75;;;-4.68;89.39
69566;BME280;56777;55.930;37.524;2024-03-08T02:43:09;101652.09;;;-4.61;88.75
69566;BME280;56777;55.930;37.524;2024-03-08T02:45:35;101657.22;;;-4.33;88.53
69566;BME280;56777;55.930;37.524;2024-03-08T02:48:01;101648.72;;;-4.42;88.54
69566;BME280;56777;55.930;37.524;2024-03-08T02:50:27;101654.72;;;-4.42;88.18
69566;BME280;56777;55.930;37.524;2024-03-08T02:52:52;101661.00;;;-4.38;88.24
69566;BME280;56777;55.930;37.524;2024-03-08T02:55:18;101658.59;;;-4.64;88.54
69566;BME280;56777;55.930;37.524;2024-03-08T02:57:43;101652.88;;;-4.34;87.84
69566;BME280;56777;55.930;37.524;2024-03-08T03:00:10;101639.31;;;-4.33;87.13
69566;BME280;56777;55.930;37.524;2024-03-08T03:02:36;101661.97;;;-4.74;88.22
69566;BME280;56777;55.930;37.524;2024-03-08T03:05:02;101641.88;;;-4.33;87.74
69566;BME280;56777;55.930;37.524;2024-03-08T03:07:34;101638.09;;;-4.28;86.51
69566;BME280;56777;55.930;37.524;2024-03-08T03:10:00;101636.22;;;-4.01;85.17
69566;BME280;56777;55.930;37.524;2024-03-08T03:12:27;101647.69;;;-4.07;84.86
69566;BME280;56777;55.930;37.524;2024-03-08T03:14:53;101649.94;;;-4.47;85.42
69566;BME280;56777;55.930;37.524;2024-03-08T03:17:18;101651.25;;;-4.15;85.20
69566;BME280;56777;55.930;37.524;2024-03-08T03:19:45;101651.19;;;-4.06;84.88
69566;BME280;56777;55.930;37.524;2024-03-08T03:22:12;101645.94;;;-4.35;84.00
69566;BME280;56777;55.930;37.524;2024-03-08T03:24:38;101653.63;;;-4.63;84.29
69566;BME280;56777;55.930;37.524;2024-03-08T03:27:07;101639.06;;;-4.72;84.71
69566;BME280;56777;55.930;37.524;2024-03-08T03:29:39;101632.03;;;-4.47;85.18
69566;BME280;56777;55.930;37.524;2024-03-08T03:32:08;101637.91;;;-4.48;85.17
69566;BME280;56777;55.930;37.524;2024-03-08T03:34:34;101583.53;;;-4.37;85.15
69566;BME280;56777;55.930;37.524;2024-03-08T03:37:03;101604.72;;;-4.38;84.66
69566;BME280;56777;55.930;37.524;2024-03-08T03:39:29;101627.78;;;-4.19;83.89
69566;BME280;56777;55.930;37.524;2024-03-08T03:41:58;101631.72;;;-4.23;84.49
69566;BME280;56777;55.930;37.524;2024-03-08T03:44:24;101630.13;;;-4.12;84.44
69566;BME280;56777;55.930;37.524;2024-03-08T03:46:50;101611.38;;;-4.21;83.65
69566;BME280;56777;55.930;37.524;2024-03-08T03:49:18;101639.06;;;-3.98;83.67
69566;BME280;56777;55.930;37.524;2024-03-08T03:51:44;101623.16;;;-4.04;82.78
69566;BME280;56777;55.930;37.524;2024-03-08T03:54:10;101635.59;;;-3.99;82.45
69566;BME280;56777;55.930;37.524;2024-03-08T03:56:38;101639.34;;;-3.95;81.90
69566;BME280;56777;55.930;37.524;2024-03-08T03:59:05;101643.72;;;-3.94;83.18
69566;BME280;56777;55.930;37.524;2024-03-08T04:01:32;101649.31;;;-3.98;83.43
69566;BME280;56777;55.930;37.524;2024-03-08T04:03:58;101638.44;;;-3.96;81.87
69566;BME280;56777;55.930;37.524;2024-03-08T04:06:23;101636.09;;;-4.03;82.83
69566;BME280;56777;55.930;37.524;2024-03-08T04:08:49;101643.84;;;-4.12;81.93
69566;BME280;56777;55.930;37.524;2024-03-08T04:11:15;101571.47;;;-4.38;82.00
69566;BME280;56777;55.930;37.524;2024-03-08T04:13:43;101633.53;;;-4.22;82.23
69566;BME280;56777;55.930;37.524;2024-03-08T04:16:08;101644.66;;;-4.21;82.55
69566;BME280;56777;55.930;37.524;2024-03-08T04:18:36;101652.00;;;-3.97;82.88
69566;BME280;56777;55.930;37.524;2024-03-08T04:21:04;101642.19;;;-4.11;83.41
69566;BME280;56777;55.930;37.524;2024-03-08T04:23:32;101638.78;;;-4.01;83.51
69566;BME280;56777;55.930;37.524;2024-03-08T04:25:59;101646.28;;;-3.94;83.08
69566;BME280;56777;55.930;37.524;2024-03-08T04:28:24;101633.94;;;-3.98;82.41
69566;BME280;56777;55.930;37.524;2024-03-08T04:30:50;101629.94;;;-3.86;83.27
69566;BME280;56777;55.930;37.524;2024-03-08T04:33:16;101633.66;;;-4.01;84.49
69566;BME280;56777;55.930;37.524;2024-03-08T04:35:43;101609.72;;;-4.21;84.65
69566;BME280;56777;55.930;37.524;2024-03-08T04:38:11;101624.47;;;-3.99;84.14
69566;BME280;56777;55.930;37.524;2024-03-08T04:40:36;101640.66;;;-4.09;83.89
69566;BME280;56777;55.930;37.524;2024-03-08T04:43:02;101645.31;;;-3.86;84.65
69566;BME280;56777;55.930;37.524;2024-03-08T04:45:28;101624.25;;;-3.92;85.40
69566;BME280;56777;55.930;37.524;2024-03-08T04:47:53;101643.06;;;-3.73;84.40
69566;BME280;56777;55.930;37.524;2024-03-08T04:50:19;101631.31;;;-3.90;84.37
69566;BME280;56777;55.930;37.524;2024-03-08T04:52:44;101622.19;;;-3.96;84.55
69566;BME280;56777;55.930;37.524;2024-03-08T04:55:10;101618.59;;;-3.98;83.95
69566;BME280;56777;55.930;37.524;2024-03-08T04:57:35;101641.97;;;-3.85;83.98
69566;BME280;56777;55.930;37.524;2024-03-08T05:00:02;101657.19;;;-3.68;83.71
69566;BME280;56777;55.930;37.524;2024-03-08T05:02:33;101650.56;;;-3.66;84.38
69566;BME280;56777;55.930;37.524;2024-03-08T05:04:58;101643.78;;;-3.55;83.45
69566;BME280;56777;55.930;37.524;2024-03-08T05:07:24;101655.59;;;-3.57;83.68
69566;BME280;56777;55.930;37.524;2024-03-08T05:09:49;101658.28;;;-3.55;84.13
69566;BME280;56777;55.930;37.524;2024-03-08T05:12:18;101645.63;;;-3.54;83.77
69566;BME280;56777;55.930;37.524;2024-03-08T05:14:45;101663.91;;;-3.59;83.10
69566;BME280;56777;55.930;37.524;2024-03-08T05:17:12;101628.75;;;-3.71;84.24
69566;BME280;56777;55.930;37.524;2024-03-08T05:19:37;101653.22;;;-3.64;83.52
69566;BME280;56777;55.930;37.524;2024-03-08T05:22:03;101661.00;;;-3.73;83.65
69566;BME280;56777;55.930;37.524;2024-03-08T05:24:29;101667.25;;;-3.60;83.91
69566;BME280;56777;55.930;37.524;2024-03-08T05:26:55;101659.06;;;-3.75;84.37
69566;BME280;56777;55.930;37.524;2024-03-08T05:29:21;101653.47;;;-3.71;85.04
69566;BME280;56777;55.930;37.524;2024-03-08T05:31:48;101666.47;;;-3.59;84.11
69566;BME280;56777;55.930;37.524;2024-03-08T05:34:15;101654.44;;;-3.79;84.74
69566;BME280;56777;55.930;37.524;2024-03-08T05:36:41;101662.59;;;-3.83;83.91
69566;BME280;56777;55.930;37.524;2024-03-08T05:39:14;101657.97;;;-3.69;84.46
69566;BME280;56777;55.930;37.524;2024-03-08T05:41:40;101646.06;;;-3.68;84.50
69566;BME280;56777;55.930;37.524;2024-03-08T05:44:06;101659.56;;;-3.60;83.71
69566;BME280;56777;55.930;37.524;2024-03-08T05:46:32;101645.16;;;-3.69;84.66
69566;BME280;56777;55.930;37.524;2024-03-08T05:48:57;101649.78;;;-3.65;84.25
69566;BME280;56777;55.930;37.524;2024-03-08T05:51:25;101658.88;;;-3.39;84.84
69566;BME280;56777;55.930;37.524;2024-03-08T05:53:53;101649.00;;;-3.64;84.53
69566;BME280;56777;55.930;37.524;2024-03-08T05:56:22;101666.38;;;-3.32;84.30
69566;BME280;56777;55.930;37.524;2024-03-08T05:58:50;101641.38;;;-3.24;83.91
69566;BME280;56777;55.930;37.524;2024-03-08T06:01:16;101657.09;;;-3.40;84.36
69566;BME280;56777;55.930;37.524;2024-03-08T06:03:41;101647.38;;;-3.34;84.59
69566;BME280;56777;55.930;37.524;2024-03-08T06:06:13;101642.00;;;-3.37;84.51
69566;BME280;56777;55.930;37.524;2024-03-08T06:08:39;101638.72;;;-3.26;83.92
69566;BME280;56777;55.930;37.524;2024-03-08T06:11:05;101613.97;;;-3.54;83.86
69566;BME280;56777;55.930;37.524;2024-03-08T06:13:33;101639.13;;;-3.11;83.32
69566;BME280;56777;55.930;37.524;2024-03-08T06:15:59;101633.78;;;-3.33;83.65
69566;BME280;56777;55.930;37.524;2024-03-08T06:18:26;101616.47;;;-3.46;84.01
69566;BME280;56777;55.930;37.524;2024-03-08T06:20:51;101629.81;;;-3.40;84.84
69566;BME280;56777;55.930;37.524;2024-03-08T06:23:18;101633.66;;;-3.05;83.09
69566;BME280;56777;55.930;37.524;2024-03-08T06:25:46;101638.56;;;-2.88;83.07
69566;BME280;56777;55.930;37.524;2024-03-08T06:28:12;101646.59;;;-3.04;82.82
69566;BME280;56777;55.930;37.524;2024-03-08T06:30:39;101648.19;;;-3.73;82.58
69566;BME280;56777;55.930;37.524;2024-03-08T06:33:05;101648.44;;;-3.51;83.96
69566;BME280;56777;55.930;37.524;2024-03-08T06:35:30;101589.34;;;-3.92;84.54
69566;BME280;56777;55.930;37.524;2024-03-08T06:37:58;101643.34;;;-3.70;85.43
69566;BME280;56777;55.930;37.524;2024-03-08T06:40:23;101641.56;;;-3.12;84.98
69566;BME280;56777;55.930;37.524;2024-03-08T06:42:49;101623.44;;;-3.34;83.35
69566;BME280;56777;55.930;37.524;2024-03-08T06:45:17;101607.75;;;-3.67;83.99
69566;BME280;56777;55.930;37.524;2024-03-08T06:47:46;101636.69;;;-3.09;84.06
69566;BME280;56777;55.930;37.524;2024-03-08T06:50:12;101629.72;;;-3.21;84.63
69566;BME280;56777;55.930;37.524;2024-03-08T06:52:38;101596.53;;;-3.58;83.98
69566;BME280;56777;55.930;37.524;2024-03-08T06:55:04;101607.91;;;-3.84;85.80
69566;BME280;56777;55.930;37.524;2024-03-08T06:57:31;101639.09;;;-3.21;84.46
69566;BME280;56777;55.930;37.524;2024-03-08T06:59:56;101631.22;;;-3.81;84.58
69566;BME280;56777;55.930;37.524;2024-03-08T07:02:25;101603.66;;;-3.94;85.44
69566;BME280;56777;55.930;37.524;2024-03-08T07:04:51;101642.44;;;-3.51;86.00
69566;BME280;56777;55.930;37.524;2024-03-08T07:07:18;101625.47;;;-3.59;86.21
69566;BME280;56777;55.930;37.524;2024-03-08T07:09:46;101641.59;;;-3.02;84.60
69566;BME280;56777;55.930;37.524;2024-03-08T07:12:11;101632.56;;;-3.76;85.50
69566;BME280;56777;55.930;37.524;2024-03-08T07:14:39;101641.75;;;-3.59;84.95
69566;BME280;56777;55.930;37.524;2024-03-08T07:17:11;101628.19;;;-3.29;85.04
69566;BME280;56777;55.930;37.524;2024-03-08T07:19:37;101607.19;;;-3.25;85.04
69566;BME280;56777;55.930;37.524;2024-03-08T07:22:04;101632.13;;;-3.32;85.63
69566;BME280;56777;55.930;37.524;2024-03-08T07:24:34;101640.03;;;-3.10;84.50
69566;BME280;56777;55.930;37.524;2024-03-08T07:27:16;101631.41;;;-3.50;86.41
69566;BME280;56777;55.930;37.524;2024-03-08T07:29:42;101617.53;;;-3.33;86.54
69566;BME280;56777;55.930;37.524;2024-03-08T07:32:07;101634.56;;;-3.34;87.11
69566;BME280;56777;55.930;37.524;2024-03-08T07:34:49;101623.38;;;-3.45;85.46
69566;BME280;56777;55.930;37.524;2024-03-08T07:37:16;101625.56;;;-3.39;86.56
69566;BME280;56777;55.930;37.524;2024-03-08T07:39:42;101622.50;;;-3.35;86.31
69566;BME280;56777;55.930;37.524;2024-03-08T07:42:08;101631.56;;;-3.20;85.98
69566;BME280;56777;55.930;37.524;2024-03-08T07:44:35;101574.94;;;-3.42;87.41
69566;BME280;56777;55.930;37.524;2024-03-08T07:47:01;101634.47;;;-3.25;84.59
69566;BME280;56777;55.930;37.524;2024-03-08T07:49:26;101619.41;;;-3.41;85.21
69566;BME280;56777;55.930;37.524;2024-03-08T07:51:52;101618.25;;;-3.05;83.55
69566;BME280;56777;55.930;37.524;2024-03-08T07:54:17;101628.72;;;-2.73;82.29
69566;BME280;56777;55.930;37.524;2024-03-08T07:56:43;101628.69;;;-2.83;79.69
69566;BME280;56777;55.930;37.524;2024-03-08T07:59:08;101637.03;;;-2.76;79.83
69566;BME280;56777;55.930;37.524;2024-03-08T08:01:34;101641.88;;;-2.99;78.42
69566;BME280;56777;55.930;37.524;2024-03-08T08:04:00;101639.25;;;-3.20;78.66
69566;BME280;56777;55.930;37.524;2024-03-08T08:06:28;101628.69;;;-2.83;78.98
69566;BME280;56777;55.930;37.524;2024-03-08T08:08:57;101636.69;;;-2.60;80.10
69566;BME280;56777;55.930;37.524;2024-03-08T08:11:22;101639.25;;;-2.50;79.10
69566;BME280;56777;55.930;37.524;2024-03-08T08:13:50;101642.97;;;-2.56;77.56
69566;BME280;56777;55.930;37.524;2024-03-08T08:16:16;101642.47;;;-2.62;77.71
69566;BME280;56777;55.930;37.524;2024-03-08T08:18:41;101636.06;;;-2.57;75.80
69566;BME280;56777;55.930;37.524;2024-03-08T08:21:07;101633.50;;;-2.37;77.20
69566;BME280;56777;55.930;37.524;2024-03-08T08:23:33;101633.75;;;-2.34;76.86
69566;BME280;56777;55.930;37.524;2024-03-08T08:25:58;101523.06;;;-3.39;75.24
69566;BME280;56777;55.930;37.524;2024-03-08T08:28:24;101637.56;;;-2.80;75.70
69566;BME280;56777;55.930;37.524;2024-03-08T08:30:50;101620.94;;;-2.34;75.01
69566;BME280;56777;55.930;37.524;2024-03-08T08:33:16;101598.66;;;-3.05;75.75
69566;BME280;56777;55.930;37.524;2024-03-08T08:35:41;101619.34;;;-2.83;77.44
69566;BME280;56777;55.930;37.524;2024-03-08T08:38:08;101615.28;;;-2.40;76.78
69566;BME280;56777;55.930;37.524;2024-03-08T08:40:34;101601.28;;;-2.33;75.98
69566;BME280;56777;55.930;37.524;2024-03-08T08:43:01;101611.94;;;-2.59;74.42
69566;BME280;56777;55.930;37.524;2024-03-08T08:45:32;101616.81;;;-2.42;74.81
69566;BME280;56777;55.930;37.524;2024-03-08T08:47:59;101555.84;;;-2.14;73.49
69566;BME280;56777;55.930;37.524;2024-03-08T08:50:27;101605.22;;;-1.86;72.47
69566;BME280;56777;55.930;37.524;2024-03-08T08:52:54;101614.22;;;-2.01;72.03
69566;BME280;56777;55.930;37.524;2024-03-08T08:55:19;101617.06;;;-2.59;73.29
69566;BME280;56777;55.930;37.524;2024-03-08T08:57:52;101614.47;;;-1.98;72.92
69566;BME280;56777;55.930;37.524;2024-03-08T09:00:20;101612.28;;;-2.04;72.34
69566;BME280;56777;55.930;37.524;2024-03-08T09:02:47;101596.41;;;-2.71;72.89
69566;BME280;56777;55.930;37.524;2024-03-08T09:05:16;101626.66;;;-1.95;72.92
69566;BME280;56777;55.930;37.524;2024-03-08T09:07:45;101595.75;;;-2.28;72.88
69566;BME280;56777;55.930;37.524;2024-03-08T09:10:11;101610.69;;;-1.71;71.12
69566;BME280;56777;55.930;37.524;2024-03-08T09:12:40;101616.53;;;-1.94;71.66
69566;BME280;56777;55.930;37.524;2024-03-08T09:15:07;101603.91;;;-1.81;71.41
69566;BME280;56777;55.930;37.524;2024-03-08T09:17:39;101615.53;;;-2.47;71.53
69566;BME280;56777;55.930;37.524;2024-03-08T09:20:06;101596.03;;;-1.72;71.06
69566;BME280;56777;55.930;37.524;2024-03-08T09:22:34;101562.00;;;-2.12;69.61
69566;BME280;56777;55.930;37.524;2024-03-08T09:25:00;101584.94;;;-1.93;69.94
69566;BME280;56777;55.930;37.524;2024-03-08T09:27:26;101592.50;;;-1.52;69.16
69566;BME280;56777;55.930;37.524;2024-03-08T09:29:52;101584.78;;;-1.84;68.85
69566;BME280;56777;55.930;37.524;2024-03-08T09:32:18;101582.75;;;-1.98;69.18
69566;BME280;56777;55.930;37.524;2024-03-08T09:34:43;101562.59;;;-2.04;69.03
69566;BME280;56777;55.930;37.524;2024-03-08T09:37:09;101574.75;;;-1.81;68.56
69566;BME280;56777;55.930;37.524;2024-03-08T09:39:35;101571.06;;;-1.52;68.65
69566;BME280;56777;55.930;37.524;2024-03-08T09:42:01;101581.78;;;-1.68;68.65
69566;BME280;56777;55.930;37.524;2024-03-08T09:44:27;101575.69;;;-1.59;69.12
69566;BME280;56777;55.930;37.524;2024-03-08T09:46:55;101578.31;;;-1.15;69.18
69566;BME280;56777;55.930;37.524;2024-03-08T09:49:20;101579.38;;;-1.77;69.86
69566;BME280;56777;55.930;37.524;2024-03-08T09:51:46;101564.03;;;-1.11;67.46
69566;BME280;56777;55.930;37.524;2024-03-08T09:54:12;101574.34;;;-0.43;65.90
69566;BME280;56777;55.930;37.524;2024-03-08T09:56:44;101563.16;;;-0.44;64.77
69566;BME280;56777;55.930;37.524;2024-03-08T09:59:10;101555.16;;;-0.25;65.26
69566;BME280;56777;55.930;37.524;2024-03-08T10:01:51;101555.75;;;-0.63;65.06
69566;BME280;56777;55.930;37.524;2024-03-08T10:04:25;101555.41;;;-0.89;65.64
69566;BME280;56777;55.930;37.524;2024-03-08T10:06:53;101541.47;;;0.47;64.05
69566;BME280;56777;55.930;37.524;2024-03-08T10:09:21;101546.75;;;-0.22;63.22
69566;BME280;56777;55.930;37.524;2024-03-08T10:11:46;101543.50;;;-0.20;64.14
69566;BME280;56777;55.930;37.524;2024-03-08T10:14:14;101476.81;;;-0.74;63.46
69566;BME280;56777;55.930;37.524;2024-03-08T10:16:40;101531.63;;;-0.18;64.25
69566;BME280;56777;55.930;37.524;2024-03-08T10:19:06;101542.81;;;-0.17;63.65
69566;BME280;56777;55.930;37.524;2024-03-08T10:21:33;101526.72;;;0.09;63.25
69566;BME280;56777;55.930;37.524;2024-03-08T10:23:58;101531.09;;;0.70;62.31
69566;BME280;56777;55.930;37.524;2024-03-08T10:26:24;101526.31;;;0.39;60.85
69566;BME280;56777;55.930;37.524;2024-03-08T10:28:53;101533.53;;;-0.15;61.44
69566;BME280;56777;55.930;37.524;2024-03-08T10:31:19;101530.19;;;0.70;60.58
69566;BME280;56777;55.930;37.524;2024-03-08T10:33:47;101534.38;;;0.93;59.16
69566;BME280;56777;55.930;37.524;2024-03-08T10:36:15;101499.78;;;0.17;61.03
69566;BME280;56777;55.930;37.524;2024-03-08T10:38:42;101530.28;;;0.11;61.44
69566;BME280;56777;55.930;37.524;2024-03-08T10:41:09;101521.06;;;0.38;61.99
69566;BME280;56777;55.930;37.524;2024-03-08T10:46:30;101519.41;;;0.75;59.08
69566;BME280;56777;55.930;37.524;2024-03-08T10:48:57;101520.94;;;0.36;59.92
69566;BME280;56777;55.930;37.524;2024-03-08T10:51:29;101517.41;;;0.71;60.80
69566;BME280;56777;55.930;37.524;2024-03-08T10:53:57;101517.19;;;0.68;59.44
69566;BME280;56777;55.930;37.524;2024-03-08T10:56:25;101514.47;;;0.30;58.49
69566;BME280;56777;55.930;37.524;2024-03-08T10:58:54;101511.47;;;0.97;59.17
69566;BME280;56777;55.930;37.524;2024-03-08T11:01:21;101513.47;;;1.26;58.83
69566;BME280;56777;55.930;37.524;2024-03-08T11:03:47;101513.53;;;0.89;58.39
69566;BME280;56777;55.930;37.524;2024-03-08T11:09:29;101515.69;;;0.47;58.93
69566;BME280;56777;55.930;37.524;2024-03-08T11:12:56;101512.34;;;0.24;60.73
69566;BME280;56777;55.930;37.524;2024-03-08T11:15:10;101509.09;;;1.25;57.99
69566;BME280;56777;55.930;37.524;2024-03-08T11:22:53;101473.34;;;1.31;56.50
69566;BME280;56777;55.930;37.524;2024-03-08T11:25:38;101504.63;;;1.61;55.73
69566;BME280;56777;55.930;37.524;2024-03-08T11:28:20;101507.91;;;1.33;55.69
69566;BME280;56777;55.930;37.524;2024-03-08T11:31:22;101507.56;;;1.41;55.60
69566;BME280;56777;55.930;37.524;2024-03-08T11:33:35;101497.94;;;1.13;55.88
69566;BME280;56777;55.930;37.524;2024-03-08T11:38:40;101499.53;;;2.84;51.92
69566;BME280;56777;55.930;37.524;2024-03-08T11:41:06;101487.34;;;1.87;51.78
69566;BME280;56777;55.930;37.524;2024-03-08T11:43:33;101479.47;;;2.12;51.61
69566;BME280;56777;55.930;37.524;2024-03-08T11:46:08;101488.22;;;2.14;51.89
69566;BME280;56777;55.930;37.524;2024-03-08T11:48:34;101486.75;;;1.77;52.57
69566;BME280;56777;55.930;37.524;2024-03-08T11:51:03;101474.00;;;1.94;52.34
69566;BME280;56777;55.930;37.524;2024-03-08T11:53:30;101482.91;;;1.46;52.25
69566;BME280;56777;55.930;37.524;2024-03-08T11:56:17;101473.59;;;2.14;51.69
69566;BME280;56777;55.930;37.524;2024-03-08T11:58:53;101416.38;;;1.42;52.11
69566;BME280;56777;55.930;37.524;2024-03-08T12:01:22;101475.09;;;2.11;50.91
69566;BME280;56777;55.930;37.524;2024-03-08T12:03:56;101474.78;;;1.53;53.17
69566;BME280;56777;55.930;37.524;2024-03-08T12:06:36;101469.44;;;1.76;52.07
69566;BME280;56777;55.930;37.524;2024-03-08T12:09:07;101478.50;;;1.70;52.83
69566;BME280;56777;55.930;37.524;2024-03-08T12:11:34;101474.59;;;1.76;52.55
69566;BME280;56777;55.930;37.524;2024-03-08T12:14:01;101466.44;;;2.10;52.01
69566;BME280;56777;55.930;37.524;2024-03-08T12:16:27;101465.22;;;2.32;51.17
69566;BME280;56777;55.930;37.524;2024-03-08T12:18:53;101455.69;;;2.17;51.61
69566;BME280;56777;55.930;37.524;2024-03-08T12:21:19;101453.13;;;1.91;51.99
69566;BME280;56777;55.930;37.524;2024-03-08T12:24:06;101455.44;;;1.86;51.83
69566;BME280;56777;55.930;37.524;2024-03-08T12:26:38;101446.78;;;2.12;51.65
69566;BME280;56777;55.930;37.524;2024-03-08T12:31:45;101442.22;;;1.82;52.29
69566;BME280;56777;55.930;37.524;2024-03-08T12:34:12;101442.41;;;1.58;51.67
69566;BME280;56777;55.930;37.524;2024-03-08T12:36:44;101446.78;;;1.99;51.81
69566;BME280;56777;55.930;37.524;2024-03-08T12:39:10;101429.97;;;1.66;52.14
69566;BME280;56777;55.930;37.524;2024-03-08T12:41:40;101426.59;;;1.93;52.84
69566;BME280;56777;55.930;37.524;2024-03-08T12:44:09;101439.41;;;2.05;51.99
69566;BME280;56777;55.930;37.524;2024-03-08T12:46:37;101435.56;;;1.72;52.46
69566;BME280;56777;55.930;37.524;2024-03-08T12:49:07;101422.81;;;2.15;51.84
69566;BME280;56777;55.930;37.524;2024-03-08T12:51:33;101426.41;;;1.77;53.04
69566;BME280;56777;55.930;37.524;2024-03-08T12:53:58;101425.00;;;1.69;53.60
69566;BME280;56777;55.930;37.524;2024-03-08T12:56:31;101426.72;;;1.82;52.58
69566;BME280;56777;55.930;37.524;2024-03-08T12:58:59;101427.13;;;1.61;53.84
69566;BME280;56777;55.930;37.524;2024-03-08T13:01:25;101411.47;;;2.13;52.78